Orel 5 — EMFH — position and weather

sailwx.info

Track history (hours):
 
Tides and Currents Weather Stations Pressure Air Temp Water Temp Dewpoint Dewpoint Depression Visibility Wind Speed Wind Dir Waves Ship Positions

Orel 5

Last reported at 2015-Jul-25 05:07 UTC. Time now 2015-Jul-29 00:39 UTC.
Position N 45°50' E 030°36'.

Length 108 m; draft 3.5 m.

Type: Cargo ship. MMSI: 272059000.

Date/timePositionNaut miles runAvg speedWind from/ knotsBaromVisibWave heightAir tempDewpointWater temp
2015-Jul-25 05:07N 45°50' E 030°36'4 7.1
2015-Jul-25 04:33N 45°53' E 030°39'7 6.9
2015-Jul-25 03:33N 45°59' E 030°44'7 7.0
2015-Jul-25 02:33N 46°05' E 030°49'7 7.3
2015-Jul-25 01:33N 46°12' E 030°53'9 7.4
2015-Jul-25 00:21N 46°21' E 030°55'6 7.4
2015-Jul-24 23:33N 46°27' E 030°55'6 6.4
2015-Jul-24 22:33N 46°33' E 030°58'7 7.1
2015-Jul-24 21:34N 46°35' E 031°08'7 7.3
2015-Jul-24 20:33N 46°35' E 031°18'14 6.9
2015-Jul-24 18:33N 46°35' E 031°38'7 7.2
2015-Jul-24 17:33N 46°35' E 031°49'7 7.0
2015-Jul-24 16:33N 46°33' E 031°58'7 6.7
2015-Jul-24 15:33N 46°32' E 032°08'142 4.6
2015-Jul-23 08:30N 47°43' E 035°09'6 6.7
2015-Jul-23 07:33N 47°49' E 035°08'3 2.9
2015-Jul-23 06:33N 47°52' E 035°06'4 4.0
2015-Jul-23 05:33N 47°56' E 035°07'  
2015-Jul-19 07:33N 47°58' E 035°07'7 6.8
2015-Jul-19 06:33N 47°52' E 035°05'2 1.9
2015-Jul-19 05:33N 47°50' E 035°06'7 6.8
2015-Jul-19 04:33N 47°44' E 035°10'131 5.2
2015-Jul-18 03:11N 46°34' E 032°27'6 7.9
2015-Jul-18 02:26N 46°33' E 032°18'7 8.1
2015-Jul-18 01:34N 46°32' E 032°08'8 8.1
2015-Jul-18 00:34N 46°34' E 031°56'8 8.0
2015-Jul-17 23:33N 46°36' E 031°45'9 8.2
2015-Jul-17 22:30N 46°35' E 031°32'7 7.3
2015-Jul-17 21:34N 46°35' E 031°22'10 8.6
2015-Jul-17 20:24N 46°35' E 031°08'5 6.4
2015-Jul-17 19:33N 46°33' E 031°00'7 6.8
2015-Jul-17 18:33N 46°27' E 030°57'8 8.5
2015-Jul-17 17:34N 46°18' E 030°57'  
Track history (hours):
 
Tides and Currents Weather Stations Pressure Air Temp Water Temp Dewpoint Dewpoint Depression Visibility Wind Speed Wind Dir Waves Ship Positions

Orel 5

Last reported at 2015-Jul-25 05:07 UTC. Time now 2015-Jul-29 00:39 UTC.
Position N 45°50' E 030°36'.

Length 108 m; draft 3.5 m.

Type: Cargo ship. MMSI: 272059000.

Date/timePositionNaut miles runAvg speedWind from/ knotsBaromVisibWave heightAir tempDewpointWater temp
2015-Jul-25 05:07N 45°50' E 030°36'4 7.1
2015-Jul-25 04:33N 45°53' E 030°39'7 6.9
2015-Jul-25 03:33N 45°59' E 030°44'7 7.0
2015-Jul-25 02:33N 46°05' E 030°49'7 7.3
2015-Jul-25 01:33N 46°12' E 030°53'9 7.4
2015-Jul-25 00:21N 46°21' E 030°55'6 7.4
2015-Jul-24 23:33N 46°27' E 030°55'6 6.4
2015-Jul-24 22:33N 46°33' E 030°58'7 7.1
2015-Jul-24 21:34N 46°35' E 031°08'7 7.3
2015-Jul-24 20:33N 46°35' E 031°18'14 6.9
2015-Jul-24 18:33N 46°35' E 031°38'7 7.2
2015-Jul-24 17:33N 46°35' E 031°49'7 7.0
2015-Jul-24 16:33N 46°33' E 031°58'7 6.7
2015-Jul-24 15:33N 46°32' E 032°08'142 4.6
2015-Jul-23 08:30N 47°43' E 035°09'6 6.7
2015-Jul-23 07:33N 47°49' E 035°08'3 2.9
2015-Jul-23 06:33N 47°52' E 035°06'4 4.0
2015-Jul-23 05:33N 47°56' E 035°07'  
2015-Jul-19 07:33N 47°58' E 035°07'7 6.8
2015-Jul-19 06:33N 47°52' E 035°05'2 1.9
2015-Jul-19 05:33N 47°50' E 035°06'7 6.8
2015-Jul-19 04:33N 47°44' E 035°10'131 5.2
2015-Jul-18 03:11N 46°34' E 032°27'6 7.9
2015-Jul-18 02:26N 46°33' E 032°18'7 8.1
2015-Jul-18 01:34N 46°32' E 032°08'8 8.1
2015-Jul-18 00:34N 46°34' E 031°56'8 8.0
2015-Jul-17 23:33N 46°36' E 031°45'9 8.2
2015-Jul-17 22:30N 46°35' E 031°32'7 7.3
2015-Jul-17 21:34N 46°35' E 031°22'10 8.6
2015-Jul-17 20:24N 46°35' E 031°08'5 6.4
2015-Jul-17 19:33N 46°33' E 031°00'7 6.8
2015-Jul-17 18:33N 46°27' E 030°57'8 8.5
2015-Jul-17 17:34N 46°18' E 030°57'  

Dump ship's entire track history